createdAt,value
2023-02-19T00:00:05.265Z,9.57
2023-02-19T00:02:42.230Z,10.47
2023-02-19T00:05:11.093Z,11.63
2023-02-19T00:07:41.057Z,11.23
2023-02-19T00:10:09.772Z,33.50
2023-02-19T00:12:38.267Z,18.80
2023-02-19T00:15:07.274Z,16.30
2023-02-19T00:17:35.679Z,16.47
2023-02-19T00:20:04.061Z,20.93
2023-02-19T00:22:32.684Z,17.80
2023-02-19T00:25:02.697Z,15.93
2023-02-19T00:27:31.246Z,14.87
2023-02-19T00:29:59.805Z,19.83
2023-02-19T00:32:28.332Z,14.60
2023-02-19T00:34:56.931Z,14.10
2023-02-19T00:37:25.602Z,16.67
2023-02-19T00:39:54.074Z,14.00
2023-02-19T00:42:25.538Z,13.43
2023-02-19T00:44:54.212Z,10.23
2023-02-19T00:47:22.693Z,12.07
2023-02-19T00:49:51.445Z,17.97
2023-02-19T00:52:19.960Z,17.40
2023-02-19T00:54:48.465Z,10.80
2023-02-19T00:57:17.459Z,15.60
2023-02-19T00:59:47.576Z,20.57
2023-02-19T01:02:16.484Z,18.60
2023-02-19T01:04:45.149Z,14.43
2023-02-19T01:07:13.731Z,20.10
2023-02-19T01:09:42.547Z,14.17
2023-02-19T01:12:11.800Z,14.60
2023-02-19T01:14:40.318Z,10.47
2023-02-19T01:17:10.604Z,13.17
2023-02-19T01:19:39.494Z,14.20
2023-02-19T01:22:08.066Z,11.53
2023-02-19T01:24:37.174Z,12.30
2023-02-19T01:27:05.877Z,10.20
2023-02-19T01:29:35.978Z,9.63
2023-02-19T01:32:04.684Z,8.97
2023-02-19T01:34:34.713Z,15.37
2023-02-19T01:37:03.633Z,13.10
2023-02-19T01:39:32.396Z,10.23
2023-02-19T01:42:01.163Z,14.97
2023-02-19T01:45:15.533Z,9.33
2023-02-19T01:47:44.166Z,10.70
2023-02-19T01:50:14.093Z,10.80
2023-02-19T01:52:43.051Z,8.63
2023-02-19T01:55:14.454Z,11.17
2023-02-19T01:57:46.439Z,9.37
2023-02-19T02:00:19.095Z,11.93
2023-02-19T02:02:50.777Z,17.07
2023-02-19T02:05:26.452Z,13.43
2023-02-19T02:08:12.519Z,17.10
2023-02-19T02:10:41.083Z,8.00
2023-02-19T02:13:10.377Z,12.87
2023-02-19T02:15:44.900Z,10.37
2023-02-19T02:18:20.573Z,9.90
2023-02-19T02:21:05.153Z,12.40
2023-02-19T02:23:44.214Z,9.73
2023-02-19T02:26:31.875Z,16.63
2023-02-19T02:29:33.467Z,11.40
2023-02-19T02:32:05.747Z,10.00
2023-02-19T02:34:37.973Z,16.87
2023-02-19T02:37:08.118Z,11.07
2023-02-19T02:39:38.579Z,10.40
2023-02-19T02:42:24.657Z,17.93
2023-02-19T02:45:37.309Z,4.13
2023-02-19T02:48:21.486Z,9.67
2023-02-19T02:50:53.353Z,10.97
2023-02-19T02:53:42.769Z,9.60
2023-02-19T02:56:11.907Z,6.83
2023-02-19T02:58:57.915Z,7.23
2023-02-19T03:01:46.546Z,10.07
2023-02-19T03:04:20.757Z,13.27
2023-02-19T03:06:49.967Z,12.30
2023-02-19T03:09:22.240Z,14.27
2023-02-19T03:12:10.577Z,9.53
2023-02-19T03:14:59.975Z,6.80
2023-02-19T03:17:48.702Z,13.10
2023-02-19T03:20:22.768Z,12.10
2023-02-19T03:22:53.050Z,10.17
2023-02-19T03:25:41.436Z,15.43
2023-02-19T03:28:11.799Z,7.73
2023-02-19T03:30:42.075Z,13.70
2023-02-19T03:33:13.506Z,13.60
2023-02-19T03:35:46.596Z,9.70
2023-02-19T03:38:18.920Z,10.13
2023-02-19T03:40:55.369Z,8.17
2023-02-19T03:43:28.558Z,11.73
2023-02-19T03:46:02.302Z,7.93
2023-02-19T03:48:34.903Z,10.90
2023-02-19T03:51:14.445Z,8.87
2023-02-19T03:53:51.355Z,7.67
2023-02-19T03:56:24.003Z,9.37
2023-02-19T03:58:56.915Z,9.20
2023-02-19T04:01:28.865Z,11.83
2023-02-19T04:04:00.323Z,7.77
2023-02-19T04:06:31.989Z,11.40
2023-02-19T04:09:02.686Z,9.23
2023-02-19T04:11:32.110Z,8.03
2023-02-19T04:14:08.565Z,8.37
2023-02-19T04:16:40.255Z,6.97
2023-02-19T04:19:11.850Z,10.67
2023-02-19T04:21:42.424Z,6.37
2023-02-19T04:24:15.188Z,12.70
2023-02-19T04:26:44.485Z,8.17
2023-02-19T04:29:12.938Z,9.63
2023-02-19T04:31:41.379Z,9.80
2023-02-19T04:34:10.628Z,6.70
2023-02-19T04:36:39.242Z,15.23
2023-02-19T04:39:09.243Z,7.60
2023-02-19T04:41:37.694Z,14.00
2023-02-19T04:44:06.409Z,10.90
2023-02-19T04:46:34.872Z,10.33
2023-02-19T04:49:03.261Z,13.57
2023-02-19T04:51:31.626Z,12.23
2023-02-19T04:54:00.532Z,12.90
2023-02-19T04:56:30.447Z,11.67
2023-02-19T04:58:58.850Z,7.67
2023-02-19T05:01:27.671Z,12.17
2023-02-19T05:03:56.200Z,8.90
2023-02-19T05:06:24.887Z,9.57
2023-02-19T05:08:53.597Z,6.53
2023-02-19T05:11:23.796Z,10.83
2023-02-19T05:13:53.729Z,8.33
2023-02-19T05:16:22.219Z,8.77
2023-02-19T05:18:50.695Z,11.20
2023-02-19T05:21:19.954Z,13.70
2023-02-19T05:23:48.586Z,13.60
2023-02-19T05:26:18.800Z,11.77
2023-02-19T05:28:48.006Z,9.80
2023-02-19T05:31:18.350Z,9.40
2023-02-19T05:33:51.050Z,6.17
2023-02-19T05:36:20.780Z,8.00
2023-02-19T05:38:50.788Z,13.53
2023-02-19T05:41:20.662Z,7.23
2023-02-19T05:43:50.154Z,5.73
2023-02-19T05:46:21.764Z,9.83
2023-02-19T05:48:50.885Z,7.83
2023-02-19T05:51:21.621Z,17.13
2023-02-19T05:53:50.585Z,7.63
2023-02-19T05:56:35.262Z,10.00
2023-02-19T05:59:06.797Z,9.80
2023-02-19T06:01:37.474Z,17.60
2023-02-19T06:04:06.455Z,8.17
2023-02-19T06:06:35.034Z,13.87
2023-02-19T06:09:03.413Z,6.97
2023-02-19T06:11:32.113Z,15.53
2023-02-19T06:14:00.580Z,8.20
2023-02-19T06:16:29.221Z,14.03
2023-02-19T06:18:59.221Z,8.97
2023-02-19T06:21:27.473Z,10.07
2023-02-19T06:23:56.015Z,10.57
2023-02-19T06:26:26.285Z,12.43
2023-02-19T06:28:55.448Z,9.83
2023-02-19T06:31:24.231Z,10.77
2023-02-19T06:33:55.095Z,11.37
2023-02-19T06:36:26.220Z,6.60
2023-02-19T06:38:55.280Z,7.47
2023-02-19T06:41:23.717Z,6.10
2023-02-19T06:43:52.315Z,7.70
2023-02-19T06:46:21.078Z,11.43
2023-02-19T06:48:49.658Z,7.50
2023-02-19T06:51:22.715Z,9.10
2023-02-19T06:53:52.542Z,6.03
2023-02-19T06:56:26.010Z,9.40
2023-02-19T06:58:54.917Z,11.20
2023-02-19T07:01:23.829Z,4.57
2023-02-19T07:03:52.806Z,8.40
2023-02-19T07:06:21.830Z,7.77
2023-02-19T07:08:52.381Z,7.90
2023-02-19T07:11:20.953Z,9.53
2023-02-19T07:13:49.439Z,9.90
2023-02-19T07:16:18.946Z,5.80
2023-02-19T07:18:47.608Z,7.83
2023-02-19T07:21:17.446Z,6.00
2023-02-19T07:23:46.840Z,7.87
2023-02-19T07:26:19.520Z,11.47
2023-02-19T07:28:49.335Z,12.13
2023-02-19T07:31:19.586Z,7.00
2023-02-19T07:33:48.685Z,4.70
2023-02-19T07:36:18.518Z,9.30
2023-02-19T07:38:47.234Z,5.20
2023-02-19T07:41:17.175Z,7.00
2023-02-19T07:43:45.553Z,5.23
2023-02-19T07:46:14.758Z,4.23
2023-02-19T07:48:44.491Z,4.93
2023-02-19T07:51:16.644Z,7.87
2023-02-19T07:53:45.022Z,11.57
2023-02-19T07:56:14.237Z,5.37
2023-02-19T07:58:46.175Z,8.10
2023-02-19T08:01:17.081Z,7.87
2023-02-19T08:03:45.305Z,8.57
2023-02-19T08:06:14.000Z,3.53
2023-02-19T08:08:42.549Z,8.87
2023-02-19T08:11:29.455Z,6.33
2023-02-19T08:13:59.471Z,4.17
2023-02-19T08:16:42.189Z,7.17
2023-02-19T08:19:11.361Z,5.17
2023-02-19T08:21:39.792Z,6.47
2023-02-19T08:24:08.181Z,9.07
2023-02-19T08:26:36.816Z,8.07
2023-02-19T08:29:07.350Z,8.20
2023-02-19T08:31:36.813Z,5.63
2023-02-19T08:34:05.452Z,8.73
2023-02-19T08:36:33.850Z,4.80
2023-02-19T08:39:02.190Z,5.77
2023-02-19T08:41:30.618Z,3.57
2023-02-19T08:43:58.922Z,4.80
2023-02-19T08:46:28.903Z,4.63
2023-02-19T08:48:57.438Z,7.73
2023-02-19T08:51:26.026Z,5.60
2023-02-19T08:53:54.828Z,10.17
2023-02-19T08:56:23.544Z,11.20
2023-02-19T08:58:52.246Z,5.50
2023-02-19T09:01:20.738Z,7.80
2023-02-19T09:03:50.682Z,9.03
2023-02-19T09:06:20.548Z,5.43
2023-02-19T09:08:49.089Z,8.20
2023-02-19T09:11:17.583Z,11.63
2023-02-19T09:13:46.170Z,5.30
2023-02-19T09:16:14.676Z,5.87
2023-02-19T09:18:43.235Z,6.33
2023-02-19T09:21:13.343Z,6.57
2023-02-19T09:23:42.059Z,4.70
2023-02-19T09:26:11.485Z,4.93
2023-02-19T09:28:41.952Z,4.73
2023-02-19T09:31:12.933Z,7.83
2023-02-19T09:33:44.479Z,10.27
2023-02-19T09:36:14.997Z,5.87
2023-02-19T09:38:44.062Z,7.17
2023-02-19T09:41:17.700Z,5.73
2023-02-19T09:43:46.360Z,6.10
2023-02-19T09:46:26.122Z,8.43
2023-02-19T09:48:55.210Z,6.07
2023-02-19T09:51:26.700Z,6.97
2023-02-19T09:53:55.777Z,6.53
2023-02-19T09:56:24.457Z,5.13
2023-02-19T09:58:55.334Z,5.47
2023-02-19T10:01:25.904Z,7.33
2023-02-19T10:03:54.781Z,6.07
2023-02-19T10:06:25.928Z,5.03
2023-02-19T10:08:57.605Z,5.63
2023-02-19T10:11:27.598Z,4.77
2023-02-19T10:14:03.460Z,6.20
2023-02-19T10:16:32.199Z,6.83
2023-02-19T10:19:00.732Z,7.00
2023-02-19T10:21:30.694Z,5.40
2023-02-19T10:24:02.760Z,7.97
2023-02-19T10:26:34.713Z,7.67
2023-02-19T10:29:03.159Z,4.83
2023-02-19T10:31:33.443Z,6.17
2023-02-19T10:34:03.356Z,4.13
2023-02-19T10:36:34.467Z,4.10
2023-02-19T10:39:04.366Z,7.73
2023-02-19T10:41:33.123Z,4.27
2023-02-19T10:44:06.636Z,5.97
2023-02-19T10:46:36.905Z,4.73
2023-02-19T10:49:06.876Z,8.17
2023-02-19T10:51:39.232Z,7.43
2023-02-19T10:54:11.561Z,8.70
2023-02-19T10:56:41.461Z,3.93
2023-02-19T10:59:17.885Z,6.13
2023-02-19T11:01:56.082Z,6.17
2023-02-19T11:04:24.914Z,7.17
2023-02-19T11:06:55.143Z,5.13
2023-02-19T11:09:30.113Z,6.27
2023-02-19T11:11:59.604Z,8.43
2023-02-19T11:14:29.089Z,5.17
2023-02-19T11:16:58.819Z,4.93
2023-02-19T11:19:30.981Z,9.97
2023-02-19T11:22:02.320Z,11.80
2023-02-19T11:24:35.180Z,4.43
2023-02-19T11:27:05.915Z,4.30
2023-02-19T11:29:35.848Z,7.90
2023-02-19T11:32:27.446Z,4.27
2023-02-19T11:35:17.982Z,5.27
2023-02-19T11:37:58.557Z,3.10
2023-02-19T11:40:40.603Z,4.13
2023-02-19T11:43:19.451Z,5.73
2023-02-19T11:45:52.274Z,4.00
2023-02-19T11:48:44.058Z,8.70
2023-02-19T11:51:28.281Z,5.30
2023-02-19T11:54:05.718Z,4.07
2023-02-19T11:56:36.876Z,6.07
2023-02-19T11:59:06.530Z,3.47
2023-02-19T12:01:50.575Z,2.67
2023-02-19T12:04:37.768Z,4.57
2023-02-19T12:07:16.842Z,3.23
2023-02-19T12:09:56.923Z,3.47
2023-02-19T12:12:37.476Z,5.60
2023-02-19T12:15:36.267Z,2.70
2023-02-19T12:18:41.681Z,7.60
2023-02-19T12:21:19.902Z,2.10
2023-02-19T12:24:23.124Z,4.23
2023-02-19T12:27:04.789Z,5.97
2023-02-19T12:29:57.470Z,8.97
2023-02-19T12:32:36.798Z,9.03
2023-02-19T12:35:36.375Z,3.90
2023-02-19T12:38:14.387Z,5.50
2023-02-19T12:40:56.112Z,6.07
2023-02-19T12:43:26.112Z,4.10
2023-02-19T12:45:58.154Z,7.03
2023-02-19T12:48:31.913Z,5.23
2023-02-19T12:51:05.978Z,3.60
2023-02-19T12:53:43.128Z,6.07
2023-02-19T12:56:16.278Z,3.47
2023-02-19T12:58:49.891Z,4.90
2023-02-19T13:01:23.752Z,5.07
2023-02-19T13:03:59.602Z,3.13
2023-02-19T13:06:34.654Z,2.87
2023-02-19T13:09:07.585Z,3.77
2023-02-19T13:11:38.906Z,6.17
2023-02-19T13:14:17.564Z,2.27
2023-02-19T13:16:50.033Z,3.67
2023-02-19T13:19:18.509Z,2.83
2023-02-19T13:22:06.868Z,2.23
2023-02-19T13:24:37.944Z,2.33
2023-02-19T13:27:17.347Z,5.43
2023-02-19T13:29:58.344Z,2.33
2023-02-19T13:33:04.651Z,3.67
2023-02-19T13:35:56.968Z,2.73
2023-02-19T13:38:25.593Z,4.40
2023-02-19T13:40:56.248Z,4.13
2023-02-19T13:43:26.712Z,5.17
2023-02-19T13:45:59.072Z,4.63
2023-02-19T13:48:29.740Z,4.20
2023-02-19T13:51:35.510Z,7.13
2023-02-19T13:54:21.009Z,4.53
2023-02-19T13:56:49.568Z,4.00
2023-02-19T13:59:36.274Z,5.83
2023-02-19T14:02:23.422Z,4.40
2023-02-19T14:04:54.679Z,4.67
2023-02-19T14:07:51.734Z,6.20
2023-02-19T14:10:58.140Z,5.93
2023-02-19T14:13:59.309Z,8.23
2023-02-19T14:16:33.401Z,7.50
2023-02-19T14:19:03.318Z,5.07
2023-02-19T14:21:37.572Z,10.20
2023-02-19T14:24:06.752Z,4.43
2023-02-19T14:26:36.310Z,4.03
2023-02-19T14:29:05.071Z,5.10
2023-02-19T14:31:35.759Z,5.60
2023-02-19T14:34:07.748Z,4.83
2023-02-19T14:36:44.098Z,3.37
2023-02-19T14:39:15.789Z,3.60
2023-02-19T14:41:46.212Z,3.97
2023-02-19T14:44:18.761Z,3.40
2023-02-19T14:46:53.070Z,2.70
2023-02-19T14:49:28.654Z,5.50
2023-02-19T14:52:00.505Z,6.83
2023-02-19T14:54:40.541Z,4.37
2023-02-19T14:57:15.412Z,3.40
2023-02-19T14:59:54.810Z,3.93
2023-02-19T15:02:26.011Z,3.43
2023-02-19T15:04:56.552Z,1.73
2023-02-19T15:07:26.109Z,2.20
2023-02-19T15:09:57.059Z,1.43
2023-02-19T15:12:27.332Z,4.93
2023-02-19T15:14:58.334Z,3.93
2023-02-19T15:17:29.112Z,4.53
2023-02-19T15:20:01.039Z,5.83
2023-02-19T15:22:32.043Z,1.50
2023-02-19T15:25:02.411Z,2.53
2023-02-19T15:27:31.221Z,2.37
2023-02-19T15:29:59.965Z,2.83
2023-02-19T15:32:29.406Z,2.47
2023-02-19T15:35:00.438Z,3.00
2023-02-19T15:37:31.451Z,2.27
2023-02-19T15:40:01.936Z,2.23
2023-02-19T15:42:32.301Z,4.33
2023-02-19T15:45:04.478Z,1.70
2023-02-19T15:47:37.241Z,1.83
2023-02-19T15:50:11.437Z,7.07
2023-02-19T15:52:45.283Z,3.60
2023-02-19T15:55:21.888Z,4.33
2023-02-19T15:57:53.743Z,2.70
2023-02-19T16:00:25.594Z,2.87
2023-02-19T16:02:54.449Z,2.30
2023-02-19T16:05:28.994Z,2.03
2023-02-19T16:08:19.960Z,2.33
2023-02-19T16:10:59.920Z,4.93
2023-02-19T16:13:33.234Z,3.07
2023-02-19T16:16:08.144Z,7.17
2023-02-19T16:18:36.787Z,2.43
2023-02-19T16:21:10.396Z,3.57
2023-02-19T16:23:43.254Z,5.30
2023-02-19T16:26:12.152Z,3.00
2023-02-19T16:28:41.918Z,2.47
2023-02-19T16:31:11.999Z,3.03
2023-02-19T16:33:43.782Z,4.43
2023-02-19T16:36:27.714Z,4.77
2023-02-19T16:39:20.782Z,6.27
2023-02-19T16:42:12.625Z,4.67
2023-02-19T16:44:41.438Z,6.97
2023-02-19T16:47:26.576Z,10.33
2023-02-19T16:49:55.667Z,7.43
2023-02-19T16:52:25.683Z,6.93
2023-02-19T16:54:54.105Z,9.37
2023-02-19T16:57:22.764Z,6.13
2023-02-19T16:59:51.203Z,6.70
2023-02-19T17:02:22.632Z,3.70
2023-02-19T17:04:55.114Z,7.73
2023-02-19T17:07:26.068Z,6.70
2023-02-19T17:09:54.531Z,6.93
2023-02-19T17:12:23.468Z,8.30
2023-02-19T17:14:51.944Z,11.97
2023-02-19T17:17:20.225Z,9.73
2023-02-19T17:19:48.734Z,8.57
2023-02-19T17:22:17.815Z,9.87
2023-02-19T17:24:48.342Z,6.93
2023-02-19T17:27:16.798Z,8.50
2023-02-19T17:29:45.225Z,8.50
2023-02-19T17:32:14.777Z,8.77
2023-02-19T17:34:43.458Z,6.90
2023-02-19T17:37:11.914Z,7.40
2023-02-19T17:39:40.385Z,4.60
2023-02-19T17:42:10.303Z,4.73
2023-02-19T17:44:38.891Z,4.90
2023-02-19T17:47:07.434Z,4.77
2023-02-19T17:49:36.477Z,3.33
2023-02-19T17:52:05.384Z,5.83
2023-02-19T17:54:34.427Z,4.77
2023-02-19T17:57:03.215Z,2.97
2023-02-19T17:59:32.943Z,4.87
2023-02-19T18:02:03.271Z,5.70
2023-02-19T18:04:31.538Z,3.47
2023-02-19T18:06:59.832Z,3.07
2023-02-19T18:09:28.472Z,1.77
2023-02-19T18:11:57.034Z,5.00
2023-02-19T18:14:25.388Z,6.40
2023-02-19T18:16:55.160Z,6.40
2023-02-19T18:19:23.889Z,3.60
2023-02-19T18:21:52.569Z,3.87
2023-02-19T18:24:20.933Z,8.40
2023-02-19T18:26:49.694Z,4.20
2023-02-19T18:29:18.540Z,3.70
2023-02-19T18:31:47.311Z,2.83
2023-02-19T18:34:20.211Z,4.17
2023-02-19T18:36:49.359Z,5.53
2023-02-19T18:39:17.783Z,6.23
2023-02-19T18:41:49.337Z,5.67
2023-02-19T18:44:21.768Z,7.87
2023-02-19T18:46:51.053Z,4.70
2023-02-19T18:49:21.110Z,3.87
2023-02-19T18:51:49.482Z,7.43
2023-02-19T18:54:17.988Z,3.43
2023-02-19T18:56:47.777Z,3.30
2023-02-19T18:59:16.165Z,5.23
2023-02-19T19:01:44.834Z,3.73
2023-02-19T19:04:13.937Z,2.77
2023-02-19T19:06:43.866Z,4.40
2023-02-19T19:09:12.431Z,8.93
2023-02-19T19:11:41.453Z,5.03
2023-02-19T19:14:10.300Z,5.67
2023-02-19T19:16:38.769Z,1.90
2023-02-19T19:19:07.244Z,5.83
2023-02-19T19:21:35.561Z,4.47
2023-02-19T19:24:06.067Z,4.60
2023-02-19T19:26:35.508Z,6.90
2023-02-19T19:29:04.510Z,4.63
2023-02-19T19:31:36.767Z,2.07
2023-02-19T19:34:05.942Z,7.10
2023-02-19T19:36:34.494Z,2.57
2023-02-19T19:39:04.748Z,5.93
2023-02-19T19:41:33.251Z,6.73
2023-02-19T19:44:04.624Z,4.57
2023-02-19T19:46:33.302Z,8.03
2023-02-19T19:49:01.952Z,5.23
2023-02-19T19:51:34.216Z,6.40
2023-02-19T19:54:04.270Z,5.13
2023-02-19T19:56:32.952Z,7.33
2023-02-19T19:59:01.542Z,3.63
2023-02-19T20:01:30.009Z,7.70
2023-02-19T20:03:58.477Z,5.17
2023-02-19T20:06:28.093Z,10.87
2023-02-19T20:08:56.496Z,4.57
2023-02-19T20:11:26.248Z,5.23
2023-02-19T20:13:54.766Z,7.90
2023-02-19T20:16:27.433Z,6.27
2023-02-19T20:18:55.880Z,3.43
2023-02-19T20:21:24.439Z,3.20
2023-02-19T20:23:52.792Z,5.83
2023-02-19T20:26:28.017Z,7.60
2023-02-19T20:28:56.896Z,4.63
2023-02-19T20:31:25.654Z,2.20
2023-02-19T20:33:54.260Z,4.87
2023-02-19T20:36:22.569Z,5.43
2023-02-19T20:38:51.310Z,3.40
2023-02-19T20:41:19.727Z,6.93
2023-02-19T20:43:49.736Z,4.87
2023-02-19T20:46:18.231Z,4.93
2023-02-19T20:48:47.012Z,3.13
2023-02-19T20:51:15.360Z,6.73
2023-02-19T20:53:44.428Z,8.10
2023-02-19T20:56:13.426Z,9.57
2023-02-19T20:58:43.212Z,5.60
2023-02-19T21:01:13.083Z,6.77
2023-02-19T21:03:41.468Z,8.90
2023-02-19T21:06:10.084Z,3.03
2023-02-19T21:08:38.714Z,15.53
2023-02-19T21:11:07.113Z,5.97
2023-02-19T21:13:36.135Z,4.73
2023-02-19T21:16:04.892Z,2.97
2023-02-19T21:18:34.824Z,8.47
2023-02-19T21:21:03.298Z,8.77
2023-02-19T21:23:43.387Z,7.87
2023-02-19T21:26:12.853Z,8.67
2023-02-19T21:28:41.629Z,3.80
2023-02-19T21:31:10.268Z,3.17
2023-02-19T21:33:40.364Z,4.30
2023-02-19T21:36:10.242Z,5.93
2023-02-19T21:38:39.122Z,5.40
2023-02-19T21:41:07.460Z,5.60
2023-02-19T21:43:35.734Z,7.37
2023-02-19T21:46:04.102Z,4.73
2023-02-19T21:48:32.468Z,10.67
2023-02-19T21:51:02.375Z,7.03
2023-02-19T21:53:30.854Z,6.80
2023-02-19T21:55:59.670Z,6.60
2023-02-19T21:58:28.419Z,9.80
2023-02-19T22:00:58.232Z,6.93
2023-02-19T22:03:27.138Z,8.53
2023-02-19T22:05:56.037Z,10.70
2023-02-19T22:08:25.838Z,9.97
2023-02-19T22:10:54.185Z,6.13
2023-02-19T22:13:22.721Z,11.77
2023-02-19T22:15:51.282Z,14.00
2023-02-19T22:18:19.869Z,7.40
2023-02-19T22:20:48.388Z,7.87
2023-02-19T22:23:16.751Z,8.70
2023-02-19T22:25:46.544Z,6.60
2023-02-19T22:28:15.114Z,9.03
2023-02-19T22:30:44.125Z,7.57
2023-02-19T22:33:12.613Z,10.23
2023-02-19T22:35:41.145Z,11.13
2023-02-19T22:38:09.466Z,14.73
2023-02-19T22:40:37.849Z,10.43
2023-02-19T22:43:07.982Z,10.23
2023-02-19T22:45:36.710Z,6.13
2023-02-19T22:48:05.137Z,7.60
2023-02-19T22:50:33.721Z,7.50
2023-02-19T22:53:02.298Z,5.10
2023-02-19T22:55:31.103Z,7.23
2023-02-19T22:57:59.490Z,6.07
2023-02-19T23:00:29.381Z,9.23
2023-02-19T23:02:57.865Z,8.43
2023-02-19T23:05:26.410Z,6.93
2023-02-19T23:07:54.950Z,5.23
2023-02-19T23:10:23.411Z,10.57
2023-02-19T23:12:51.716Z,5.40
2023-02-19T23:15:20.057Z,5.37
2023-02-19T23:17:50.123Z,9.57
2023-02-19T23:20:18.468Z,6.07
2023-02-19T23:22:46.959Z,10.17
2023-02-19T23:25:15.462Z,8.50
2023-02-19T23:27:43.875Z,6.93
2023-02-19T23:30:13.384Z,7.27
2023-02-19T23:32:41.737Z,11.17
2023-02-19T23:35:11.843Z,6.30
2023-02-19T23:37:40.322Z,8.87
2023-02-19T23:40:09.826Z,5.03
2023-02-19T23:42:38.706Z,5.17
2023-02-19T23:45:07.472Z,8.53
2023-02-19T23:47:35.839Z,8.47
2023-02-19T23:50:04.192Z,5.87
2023-02-19T23:52:33.956Z,6.80
2023-02-19T23:55:02.431Z,5.37
2023-02-19T23:57:31.002Z,4.57
2023-02-19T23:59:59.384Z,7.17
